Benguela Stream — PENR — position and weather

sailwx.info

Track history (hours):
 
Tides and Currents Weather Stations Pressure Air Temp Water Temp Dewpoint Dewpoint Depression Visibility Wind Speed Wind Dir Waves Ship Positions

Benguela Stream

Last reported at 2016-Feb-10 21:00 UTC. Time now 2016-Feb-14 01:46 UTC.
Position N 18°00' W 056°36'.

Length 150 m; beam 13 m.

Type: Ship. MMSI: 244455000.

Wind from 090 at 17 knots

Waves 3.5 meters (11 feet), 2 second period

Barometer 1019.6 mb
Air temperature 26.5 ° C
Visibility: greater than 10.8 NM
Dewpoint 22.1 ° C
Water temperature 26.0 ° C

Date/timePositionNaut miles runAvg speedWind from/ knotsBaromVisibWave heightAir tempDewpointWater temp
2016-Feb-10 21:00N 18°00' W 056°36'61218.5 090 / 171019.610.8 3.526.522.126.0
2016-Feb-09 12:00N 23°54' W 047°42'11819.7 140 / 151027.410.8 0.524.819.224.4
2016-Feb-09 06:00N 25°00' W 045°54'10918.1 1026.510.8 22.116.7
2016-Feb-09 00:00N 26°06' W 044°18'22919.1 090 / 151028.710.8 1.021.816.423.3
2016-Feb-08 12:00N 28°18' W 040°48'23419.5 070 / 51031.510.8 21.617.221.1
2016-Feb-08 00:00N 30°30' W 037°06'11719.5 090 / 101030.710.8 0.519.016.520.7
2016-Feb-07 18:00N 31°42' W 035°18'35219.5 110 / 61029.710.8 20.014.919.0
2016-Feb-07 00:00N 35°00' W 029°30'11719.6 010 / 101031.510.8 0.516.512.917.3
2016-Feb-06 18:00N 36°12' W 027°36'4920.3 290 / 101028.610.8 0.516.512.016.0
2016-Feb-06 15:33N 36°40' W 026°45'2019.7
2016-Feb-06 14:33N 36°50' W 026°24'1919.5
2016-Feb-06 13:33N 37°01' W 026°04'1919.4
2016-Feb-06 12:34N 37°12' W 025°44'1919.3
2016-Feb-06 11:34N 37°24' W 025°25'1919.0
2016-Feb-06 10:33N 37°35' W 025°06'1919.4
2016-Feb-06 09:33N 37°47' W 024°46'1919.5
2016-Feb-06 08:34N 37°59' W 024°27'1919.3
2016-Feb-06 07:34N 38°11' W 024°08'2019.5
2016-Feb-06 06:33N 38°23' W 023°49'13019.7
2016-Feb-06 00:00N 39°42' W 021°36'11318.8 250 / 201021.410.8 1.516.013.715.7
2016-Feb-05 18:00N 40°54' W 019°42'59019.7 210 / 161022.510.8 1.015.013.215.0
2016-Feb-04 12:00N 46°54' W 008°54'37517.5 280 / 101036.610.8 0.512.510.212.4
2016-Feb-03 14:33N 49°39' W 000°28'1414.6
2016-Feb-03 13:34N 49°32' W 000°08'10 9.8
2016-Feb-03 12:34N 49°29' E 000°06'2 2.1
2016-Feb-03 11:32N 49°28' E 000°09'0 0.0
2016-Feb-03 10:32N 49°28' E 000°09'0 0.0
2016-Feb-03 09:32N 49°28' E 000°09'0 0.0
2016-Feb-03 08:32N 49°28' E 000°09'0 0.0
2016-Feb-03 07:32N 49°28' E 000°09'0 0.3
2016-Feb-03 06:33N 49°28' E 000°09'10 9.6
2016-Feb-03 05:33N 49°31' W 000°06'1515.0
2016-Feb-03 04:33N 49°43' W 000°18'4820.2
2016-Feb-03 02:10N 50°27' W 000°50'1218.9
2016-Feb-03 01:33N 50°38' W 000°58'1111.2
2016-Feb-03 00:33N 50°47' W 001°06'1 1.5
2016-Feb-02 23:33N 50°49' W 001°05'0 0.0
2016-Feb-02 22:33N 50°49' W 001°05'0 0.0
2016-Feb-02 21:33N 50°49' W 001°05'0 0.0
2016-Feb-02 20:33N 50°49' W 001°05'0 0.0
2016-Feb-02 19:33N 50°49' W 001°05'0 0.0
2016-Feb-02 18:30N 50°49' W 001°05'0 0.0
2016-Feb-02 17:33N 50°49' W 001°05'0 0.0
2016-Feb-02 16:33N 50°49' W 001°05'0 0.0
2016-Feb-02 15:33N 50°49' W 001°05'0 0.0
2016-Feb-02 14:33N 50°49' W 001°05'0 0.0
2016-Feb-02 13:33N 50°49' W 001°05'0 0.0
2016-Feb-02 12:33N 50°49' W 001°05'0 0.0
2016-Feb-02 11:33N 50°49' W 001°05'0 0.0
2016-Feb-02 10:33N 50°49' W 001°05'0 0.0
2016-Feb-02 09:33N 50°49' W 001°05'0 0.0
2016-Feb-02 08:33N 50°49' W 001°05'0 0.0
2016-Feb-02 07:33N 50°49' W 001°05'0 0.0
2016-Feb-02 06:33N 50°49' W 001°05'0 0.0
2016-Feb-02 05:33N 50°49' W 001°05'0 0.0
2016-Feb-02 04:33N 50°49' W 001°05'0 0.0
2016-Feb-02 03:33N 50°49' W 001°05'0 0.0
2016-Feb-02 02:33N 50°49' W 001°05'0 0.0
2016-Feb-02 01:33N 50°49' W 001°05'0 0.0
2016-Feb-02 00:33N 50°49' W 001°05'0 0.0
2016-Feb-01 23:33N 50°49' W 001°05'0 0.0
2016-Feb-01 22:33N 50°49' W 001°05'0 0.0
2016-Feb-01 21:33N 50°49' W 001°05'0 0.0
2016-Feb-01 20:31N 50°49' W 001°05'0 0.0
2016-Feb-01 19:33N 50°49' W 001°05'0 0.0
2016-Feb-01 18:33N 50°49' W 001°05'0 0.0
2016-Feb-01 17:33N 50°49' W 001°05'0 0.0
2016-Feb-01 16:33N 50°49' W 001°06'0 0.0
2016-Feb-01 15:33N 50°49' W 001°06'0 0.0
2016-Feb-01 14:33N 50°49' W 001°06'0 0.0
2016-Feb-01 13:33N 50°49' W 001°06'0 0.0
2016-Feb-01 12:33N 50°49' W 001°06'0 0.0
2016-Feb-01 11:33N 50°49' W 001°06'0 0.0
2016-Feb-01 10:33N 50°49' W 001°06'0 0.0
2016-Feb-01 09:33N 50°49' W 001°06'0 0.0
2016-Feb-01 08:33N 50°49' W 001°06'0 0.0
2016-Feb-01 07:33N 50°49' W 001°06'0 0.0
2016-Feb-01 06:33N 50°49' W 001°06'0 0.0
2016-Feb-01 05:33N 50°49' W 001°06'0 0.0
2016-Feb-01 04:33N 50°49' W 001°06'0 0.0
2016-Feb-01 03:33N 50°49' W 001°06'0 0.0
2016-Feb-01 02:34N 50°49' W 001°06'0 0.0
2016-Feb-01 01:33N 50°49' W 001°06'0 0.0
2016-Feb-01 00:33N 50°49' W 001°06'0 0.0
2016-Jan-31 23:33N 50°49' W 001°06'0 0.0
2016-Jan-31 22:33N 50°49' W 001°06'0 0.0
2016-Jan-31 21:33N 50°49' W 001°06'  
Track history (hours):
 
Tides and Currents Weather Stations Pressure Air Temp Water Temp Dewpoint Dewpoint Depression Visibility Wind Speed Wind Dir Waves Ship Positions

Benguela Stream

Last reported at 2016-Feb-10 21:00 UTC. Time now 2016-Feb-14 01:46 UTC.
Position N 18°00' W 056°36'.

Length 150 m; beam 13 m.

Type: Ship. MMSI: 244455000.

Wind from 090 at 17 knots

Waves 3.5 meters (11 feet), 2 second period

Barometer 1019.6 mb
Air temperature 26.5 ° C
Visibility: greater than 10.8 NM
Dewpoint 22.1 ° C
Water temperature 26.0 ° C

Date/timePositionNaut miles runAvg speedWind from/ knotsBaromVisibWave heightAir tempDewpointWater temp
2016-Feb-10 21:00N 18°00' W 056°36'61218.5 090 / 171019.610.8 3.526.522.126.0
2016-Feb-09 12:00N 23°54' W 047°42'11819.7 140 / 151027.410.8 0.524.819.224.4
2016-Feb-09 06:00N 25°00' W 045°54'10918.1 1026.510.8 22.116.7
2016-Feb-09 00:00N 26°06' W 044°18'22919.1 090 / 151028.710.8 1.021.816.423.3
2016-Feb-08 12:00N 28°18' W 040°48'23419.5 070 / 51031.510.8 21.617.221.1
2016-Feb-08 00:00N 30°30' W 037°06'11719.5 090 / 101030.710.8 0.519.016.520.7
2016-Feb-07 18:00N 31°42' W 035°18'35219.5 110 / 61029.710.8 20.014.919.0
2016-Feb-07 00:00N 35°00' W 029°30'11719.6 010 / 101031.510.8 0.516.512.917.3
2016-Feb-06 18:00N 36°12' W 027°36'4920.3 290 / 101028.610.8 0.516.512.016.0
2016-Feb-06 15:33N 36°40' W 026°45'2019.7
2016-Feb-06 14:33N 36°50' W 026°24'1919.5
2016-Feb-06 13:33N 37°01' W 026°04'1919.4
2016-Feb-06 12:34N 37°12' W 025°44'1919.3
2016-Feb-06 11:34N 37°24' W 025°25'1919.0
2016-Feb-06 10:33N 37°35' W 025°06'1919.4
2016-Feb-06 09:33N 37°47' W 024°46'1919.5
2016-Feb-06 08:34N 37°59' W 024°27'1919.3
2016-Feb-06 07:34N 38°11' W 024°08'2019.5
2016-Feb-06 06:33N 38°23' W 023°49'13019.7
2016-Feb-06 00:00N 39°42' W 021°36'11318.8 250 / 201021.410.8 1.516.013.715.7
2016-Feb-05 18:00N 40°54' W 019°42'59019.7 210 / 161022.510.8 1.015.013.215.0
2016-Feb-04 12:00N 46°54' W 008°54'37517.5 280 / 101036.610.8 0.512.510.212.4
2016-Feb-03 14:33N 49°39' W 000°28'1414.6
2016-Feb-03 13:34N 49°32' W 000°08'10 9.8
2016-Feb-03 12:34N 49°29' E 000°06'2 2.1
2016-Feb-03 11:32N 49°28' E 000°09'0 0.0
2016-Feb-03 10:32N 49°28' E 000°09'0 0.0
2016-Feb-03 09:32N 49°28' E 000°09'0 0.0
2016-Feb-03 08:32N 49°28' E 000°09'0 0.0
2016-Feb-03 07:32N 49°28' E 000°09'0 0.3
2016-Feb-03 06:33N 49°28' E 000°09'10 9.6
2016-Feb-03 05:33N 49°31' W 000°06'1515.0
2016-Feb-03 04:33N 49°43' W 000°18'4820.2
2016-Feb-03 02:10N 50°27' W 000°50'1218.9
2016-Feb-03 01:33N 50°38' W 000°58'1111.2
2016-Feb-03 00:33N 50°47' W 001°06'1 1.5
2016-Feb-02 23:33N 50°49' W 001°05'0 0.0
2016-Feb-02 22:33N 50°49' W 001°05'0 0.0
2016-Feb-02 21:33N 50°49' W 001°05'0 0.0
2016-Feb-02 20:33N 50°49' W 001°05'0 0.0
2016-Feb-02 19:33N 50°49' W 001°05'0 0.0
2016-Feb-02 18:30N 50°49' W 001°05'0 0.0
2016-Feb-02 17:33N 50°49' W 001°05'0 0.0
2016-Feb-02 16:33N 50°49' W 001°05'0 0.0
2016-Feb-02 15:33N 50°49' W 001°05'0 0.0
2016-Feb-02 14:33N 50°49' W 001°05'0 0.0
2016-Feb-02 13:33N 50°49' W 001°05'0 0.0
2016-Feb-02 12:33N 50°49' W 001°05'0 0.0
2016-Feb-02 11:33N 50°49' W 001°05'0 0.0
2016-Feb-02 10:33N 50°49' W 001°05'0 0.0
2016-Feb-02 09:33N 50°49' W 001°05'0 0.0
2016-Feb-02 08:33N 50°49' W 001°05'0 0.0
2016-Feb-02 07:33N 50°49' W 001°05'0 0.0
2016-Feb-02 06:33N 50°49' W 001°05'0 0.0
2016-Feb-02 05:33N 50°49' W 001°05'0 0.0
2016-Feb-02 04:33N 50°49' W 001°05'0 0.0
2016-Feb-02 03:33N 50°49' W 001°05'0 0.0
2016-Feb-02 02:33N 50°49' W 001°05'0 0.0
2016-Feb-02 01:33N 50°49' W 001°05'0 0.0
2016-Feb-02 00:33N 50°49' W 001°05'0 0.0
2016-Feb-01 23:33N 50°49' W 001°05'0 0.0
2016-Feb-01 22:33N 50°49' W 001°05'0 0.0
2016-Feb-01 21:33N 50°49' W 001°05'0 0.0
2016-Feb-01 20:31N 50°49' W 001°05'0 0.0
2016-Feb-01 19:33N 50°49' W 001°05'0 0.0
2016-Feb-01 18:33N 50°49' W 001°05'0 0.0
2016-Feb-01 17:33N 50°49' W 001°05'0 0.0
2016-Feb-01 16:33N 50°49' W 001°06'0 0.0
2016-Feb-01 15:33N 50°49' W 001°06'0 0.0
2016-Feb-01 14:33N 50°49' W 001°06'0 0.0
2016-Feb-01 13:33N 50°49' W 001°06'0 0.0
2016-Feb-01 12:33N 50°49' W 001°06'0 0.0
2016-Feb-01 11:33N 50°49' W 001°06'0 0.0
2016-Feb-01 10:33N 50°49' W 001°06'0 0.0
2016-Feb-01 09:33N 50°49' W 001°06'0 0.0
2016-Feb-01 08:33N 50°49' W 001°06'0 0.0
2016-Feb-01 07:33N 50°49' W 001°06'0 0.0
2016-Feb-01 06:33N 50°49' W 001°06'0 0.0
2016-Feb-01 05:33N 50°49' W 001°06'0 0.0
2016-Feb-01 04:33N 50°49' W 001°06'0 0.0
2016-Feb-01 03:33N 50°49' W 001°06'0 0.0
2016-Feb-01 02:34N 50°49' W 001°06'0 0.0
2016-Feb-01 01:33N 50°49' W 001°06'0 0.0
2016-Feb-01 00:33N 50°49' W 001°06'0 0.0
2016-Jan-31 23:33N 50°49' W 001°06'0 0.0
2016-Jan-31 22:33N 50°49' W 001°06'0 0.0
2016-Jan-31 21:33N 50°49' W 001°06'  

Dump ship's entire track history